createdAt,value
2018-12-17T00:01:49.404Z,1.50
2018-12-17T00:06:42.654Z,1.50
2018-12-17T00:11:36.002Z,1.50
2018-12-17T00:16:29.219Z,1.50
2018-12-17T00:21:22.560Z,1.50
2018-12-17T00:26:15.777Z,1.60
2018-12-17T00:31:08.986Z,1.60
2018-12-17T00:36:02.255Z,1.60
2018-12-17T00:40:55.473Z,1.60
2018-12-17T00:45:48.704Z,1.70
2018-12-17T00:50:41.943Z,1.60
2018-12-17T00:55:35.167Z,1.70
2018-12-17T01:00:28.411Z,2.00
2018-12-17T01:05:21.757Z,1.80
2018-12-17T01:10:14.969Z,1.70
2018-12-17T01:15:08.555Z,1.80
2018-12-17T01:20:01.744Z,1.80
2018-12-17T01:24:54.945Z,1.70
2018-12-17T01:29:48.175Z,1.70
2018-12-17T01:34:41.401Z,1.60
2018-12-17T01:39:34.691Z,1.80
2018-12-17T01:44:27.953Z,1.80
2018-12-17T01:49:21.207Z,2.00
2018-12-17T01:54:14.435Z,2.00
2018-12-17T01:59:07.735Z,2.00
2018-12-17T02:04:00.963Z,2.00
2018-12-17T02:08:54.191Z,2.00
2018-12-17T02:13:47.470Z,2.00
2018-12-17T02:18:40.749Z,2.10
2018-12-17T02:23:33.987Z,2.00
2018-12-17T02:28:27.197Z,1.90
2018-12-17T02:33:20.413Z,1.90
2018-12-17T02:38:13.674Z,1.80
2018-12-17T02:43:06.904Z,1.70
2018-12-17T02:48:00.145Z,1.70
2018-12-17T02:52:53.368Z,1.60
2018-12-17T02:57:46.624Z,1.60
2018-12-17T03:02:39.868Z,1.70
2018-12-17T03:07:33.110Z,1.80
2018-12-17T03:12:26.363Z,1.90
2018-12-17T03:17:19.719Z,1.90
2018-12-17T03:27:06.064Z,2.00
2018-12-17T03:31:59.277Z,2.00
2018-12-17T03:36:52.495Z,2.00
2018-12-17T03:41:45.768Z,1.90
2018-12-17T03:46:38.969Z,2.00
2018-12-17T03:51:32.138Z,1.90
2018-12-17T03:56:25.397Z,2.00
2018-12-17T04:01:18.616Z,2.00
2018-12-17T04:06:11.851Z,2.10
2018-12-17T04:11:05.130Z,2.10
2018-12-17T04:15:58.372Z,2.20
2018-12-17T04:20:51.608Z,2.20
2018-12-17T04:25:44.954Z,2.40
2018-12-17T04:30:38.186Z,2.40
2018-12-17T04:35:31.501Z,2.50
2018-12-17T04:40:24.741Z,2.60
2018-12-17T04:45:17.991Z,2.70
2018-12-17T04:50:11.191Z,2.80
2018-12-17T04:55:05.601Z,2.90
2018-12-17T04:59:58.813Z,3.00
2018-12-17T05:04:52.033Z,3.10
2018-12-17T05:09:45.283Z,3.10
2018-12-17T05:14:38.548Z,3.20
2018-12-17T05:19:31.847Z,3.30
2018-12-17T05:24:25.083Z,4.40
2018-12-17T05:29:21.509Z,3.40
2018-12-17T05:34:13.531Z,3.40
2018-12-17T05:39:07.363Z,3.50
2018-12-17T05:44:00.542Z,3.50
2018-12-17T05:48:53.814Z,3.60
2018-12-17T05:53:47.048Z,3.60
2018-12-17T05:58:40.301Z,3.80
2018-12-17T06:03:33.564Z,3.70
2018-12-17T06:08:26.800Z,3.80
2018-12-17T06:13:19.975Z,3.70
2018-12-17T06:18:13.205Z,3.70
2018-12-17T06:23:06.464Z,3.70
2018-12-17T06:27:59.708Z,3.70
2018-12-17T06:32:52.909Z,3.80
2018-12-17T06:37:46.156Z,3.70
2018-12-17T06:42:39.410Z,3.70
2018-12-17T06:47:32.654Z,3.80
2018-12-17T06:52:25.884Z,3.80
2018-12-17T06:57:19.122Z,3.80
2018-12-17T07:02:12.872Z,3.80
2018-12-17T07:07:06.110Z,3.90
2018-12-17T07:11:59.303Z,3.90
2018-12-17T07:16:53.460Z,3.90
2018-12-17T07:21:46.740Z,3.90
2018-12-17T07:26:39.990Z,3.90
2018-12-17T07:31:33.225Z,4.00
2018-12-17T07:36:26.462Z,4.00
2018-12-17T07:41:19.699Z,4.00
2018-12-17T07:46:12.910Z,4.10
2018-12-17T07:51:06.191Z,4.20
2018-12-17T07:55:59.413Z,4.20
2018-12-17T08:00:52.687Z,4.20
2018-12-17T08:05:45.930Z,4.30
2018-12-17T08:10:39.190Z,4.30
2018-12-17T08:15:39.104Z,4.40
2018-12-17T08:20:32.390Z,4.60
2018-12-17T08:25:26.276Z,4.70
2018-12-17T08:30:19.500Z,4.70
2018-12-17T08:35:12.721Z,4.80
2018-12-17T08:40:06.265Z,4.90
2018-12-17T08:44:59.491Z,4.90
2018-12-17T08:49:52.725Z,4.90
2018-12-17T08:54:46.280Z,5.00
2018-12-17T08:59:39.765Z,5.10
2018-12-17T09:04:32.967Z,5.20
2018-12-17T09:09:26.232Z,5.30
2018-12-17T09:14:19.436Z,5.30
2018-12-17T09:19:13.210Z,5.30
2018-12-17T09:24:06.418Z,5.30
2018-12-17T09:28:59.703Z,5.20
2018-12-17T09:33:53.028Z,5.20
2018-12-17T09:38:46.283Z,5.30
2018-12-17T09:43:39.557Z,5.40
2018-12-17T09:48:32.816Z,5.50
2018-12-17T09:53:26.057Z,5.50
2018-12-17T09:58:19.313Z,5.70
2018-12-17T10:03:12.973Z,5.80
2018-12-17T10:08:06.223Z,5.80
2018-12-17T10:12:59.456Z,5.80
2018-12-17T10:17:52.901Z,5.80
2018-12-17T10:22:46.210Z,5.90
2018-12-17T10:27:39.542Z,6.00
2018-12-17T10:32:32.804Z,6.10
2018-12-17T10:37:26.070Z,6.10
2018-12-17T10:42:19.343Z,6.20
2018-12-17T10:47:12.625Z,6.30
2018-12-17T10:52:05.926Z,6.50
2018-12-17T10:56:59.890Z,6.70
2018-12-17T11:02:02.580Z,6.90
2018-12-17T11:06:56.272Z,7.10
2018-12-17T11:11:49.613Z,7.30
2018-12-17T11:16:43.036Z,7.40
2018-12-17T11:21:36.501Z,7.90
2018-12-17T11:26:29.969Z,7.80
2018-12-17T11:31:23.536Z,8.00
2018-12-17T11:36:16.925Z,8.20
2018-12-17T11:41:13.346Z,8.40
2018-12-17T11:46:09.834Z,8.60
2018-12-17T11:51:03.191Z,8.70
2018-12-17T11:55:56.504Z,8.70
2018-12-17T12:00:55.598Z,8.50
2018-12-17T12:05:49.179Z,8.20
2018-12-17T12:10:42.495Z,7.90
2018-12-17T12:15:35.798Z,7.90
2018-12-17T12:20:29.082Z,7.90
2018-12-17T12:25:22.519Z,8.00
2018-12-17T12:30:15.769Z,8.10
2018-12-17T12:35:11.525Z,8.10
2018-12-17T12:40:06.477Z,8.10
2018-12-17T12:45:00.033Z,8.10
2018-12-17T12:49:53.486Z,8.20
2018-12-17T12:54:47.523Z,8.60
2018-12-17T12:59:40.898Z,9.00
2018-12-17T13:04:34.196Z,9.20
2018-12-17T13:09:28.142Z,9.30
2018-12-17T13:14:21.461Z,9.20
2018-12-17T13:19:14.700Z,9.30
2018-12-17T13:24:07.934Z,9.10
2018-12-17T13:29:01.309Z,8.80
2018-12-17T13:33:54.550Z,8.70
2018-12-17T13:38:47.971Z,8.50
2018-12-17T13:43:41.297Z,8.50
2018-12-17T13:48:34.602Z,8.40
2018-12-17T13:53:32.639Z,8.40
2018-12-17T13:58:25.928Z,8.40
2018-12-17T14:03:19.168Z,8.30
2018-12-17T14:08:12.462Z,8.40
2018-12-17T14:13:05.801Z,8.40
2018-12-17T14:18:01.833Z,8.50
2018-12-17T14:22:55.060Z,8.70
2018-12-17T14:27:48.354Z,8.70
2018-12-17T14:32:41.703Z,8.70
2018-12-17T14:37:39.517Z,8.60
2018-12-17T14:42:32.747Z,8.60
2018-12-17T14:47:26.212Z,8.60
2018-12-17T14:52:19.472Z,8.50
2018-12-17T14:57:12.750Z,8.60
2018-12-17T15:02:06.069Z,8.50
2018-12-17T15:06:59.308Z,8.50
2018-12-17T15:11:52.598Z,8.60
2018-12-17T15:16:45.875Z,8.60
2018-12-17T15:21:39.225Z,8.50
2018-12-17T15:26:32.489Z,8.50
2018-12-17T15:31:25.889Z,8.50
2018-12-17T15:36:19.136Z,8.40
2018-12-17T15:41:12.385Z,8.30
2018-12-17T15:46:06.011Z,8.30
2018-12-17T15:50:59.232Z,8.20
2018-12-17T15:55:52.600Z,8.20
2018-12-17T16:00:45.994Z,8.10
2018-12-17T16:05:39.294Z,8.00
2018-12-17T16:10:32.536Z,8.00
2018-12-17T16:15:25.776Z,7.90
2018-12-17T16:20:19.071Z,7.90
2018-12-17T16:25:12.721Z,7.90
2018-12-17T16:30:08.987Z,7.80
2018-12-17T16:35:02.317Z,7.90
2018-12-17T16:39:55.525Z,7.90
2018-12-17T16:44:48.747Z,7.90
2018-12-17T16:49:43.072Z,7.90
2018-12-17T16:54:36.279Z,7.80
2018-12-17T16:59:29.571Z,7.70
2018-12-17T17:04:22.848Z,7.50
2018-12-17T17:09:16.122Z,7.20
2018-12-17T17:14:09.653Z,7.10
2018-12-17T17:19:03.012Z,7.20
2018-12-17T17:23:56.230Z,7.20
2018-12-17T17:28:49.503Z,7.10
2018-12-17T17:33:43.330Z,7.00
2018-12-17T17:38:37.218Z,6.70
2018-12-17T17:43:30.532Z,6.40
2018-12-17T17:48:23.792Z,6.30
2018-12-17T17:53:17.042Z,6.20
2018-12-17T17:58:10.306Z,6.10
2018-12-17T18:03:04.483Z,6.00
2018-12-17T18:07:57.717Z,6.00
2018-12-17T18:12:51.035Z,6.00
2018-12-17T18:17:44.273Z,6.00
2018-12-17T18:22:37.549Z,5.90
2018-12-17T18:27:30.861Z,5.80
2018-12-17T18:32:26.173Z,5.70
2018-12-17T18:37:19.414Z,5.60
2018-12-17T18:42:12.780Z,5.80
2018-12-17T18:47:06.176Z,6.20
2018-12-17T18:51:59.959Z,6.20
2018-12-17T18:56:53.247Z,6.30
2018-12-17T19:01:46.557Z,6.40
2018-12-17T19:06:39.991Z,6.30
2018-12-17T19:11:33.283Z,6.40
2018-12-17T19:16:26.525Z,6.30
2018-12-17T19:21:19.907Z,6.10
2018-12-17T19:26:13.248Z,6.00
2018-12-17T19:31:06.593Z,6.00
2018-12-17T19:35:59.929Z,6.30
2018-12-17T19:40:53.277Z,6.30
2018-12-17T19:45:46.644Z,6.40
2018-12-17T19:50:40.912Z,6.40
2018-12-17T19:55:34.224Z,6.40
2018-12-17T20:00:27.602Z,6.50
2018-12-17T20:05:20.910Z,6.40
2018-12-17T20:10:19.775Z,6.30
2018-12-17T20:15:13.131Z,6.00
2018-12-17T20:20:07.194Z,5.80
2018-12-17T20:25:00.442Z,5.60
2018-12-17T20:29:53.662Z,5.60
2018-12-17T20:34:47.509Z,5.60
2018-12-17T20:39:40.992Z,5.40
2018-12-17T20:44:34.444Z,5.40
2018-12-17T20:49:27.684Z,5.60
2018-12-17T20:54:21.370Z,5.70
2018-12-17T20:59:14.656Z,5.80
2018-12-17T21:04:07.873Z,5.90
2018-12-17T21:09:01.097Z,5.90
2018-12-17T21:13:54.432Z,5.70
2018-12-17T21:18:47.758Z,5.40
2018-12-17T21:23:41.211Z,5.20
2018-12-17T21:28:34.451Z,5.10
2018-12-17T21:33:27.684Z,4.80
2018-12-17T21:38:20.968Z,4.70
2018-12-17T21:43:14.193Z,4.60
2018-12-17T21:48:07.423Z,4.50
2018-12-17T21:53:00.679Z,4.50
2018-12-17T21:57:53.937Z,4.60
2018-12-17T22:02:47.171Z,4.50
2018-12-17T22:07:40.458Z,4.50
2018-12-17T22:12:33.859Z,4.40
2018-12-17T22:17:27.084Z,4.40
2018-12-17T22:22:20.312Z,4.30
2018-12-17T22:27:13.568Z,4.30
2018-12-17T22:32:06.911Z,4.20
2018-12-17T22:37:00.092Z,4.20
2018-12-17T22:41:53.268Z,4.10
2018-12-17T22:46:46.479Z,4.20
2018-12-17T22:51:39.744Z,4.20
2018-12-17T22:56:32.945Z,4.20
2018-12-17T23:01:26.163Z,4.10
2018-12-17T23:06:19.499Z,4.30
2018-12-17T23:11:29.856Z,4.40
2018-12-17T23:16:40.040Z,4.60
2018-12-17T23:21:33.335Z,4.80
2018-12-17T23:26:27.139Z,5.00
2018-12-17T23:31:20.341Z,5.10
2018-12-17T23:36:13.597Z,5.10
2018-12-17T23:41:06.806Z,5.10
2018-12-17T23:46:00.077Z,5.20
2018-12-17T23:50:53.280Z,5.30
2018-12-17T23:55:47.121Z,5.50
